Time,TemperatureF,DewpointF,PressureIn,WindDirection,WindDirectionDegrees,WindSpeedMPH,WindSpeedGustMPH,Humidity,HourlyPrecipIn,Conditions,Clouds,dailyrainin,SoftwareType,DateUTC
2013-02-06 00:00:00,29.8,26.7,30.04,NNE,15,0.0,0.0,88,0.00,,,0.00,VWS V14.00,2013-02-06 06:00:00,
2013-02-06 00:01:00,29.9,26.8,30.04,NNE,15,0.0,0.0,88,0.00,,,0.00,VWS V14.00,2013-02-06 06:01:00,
2013-02-06 00:06:00,30.1,27.0,30.05,NNE,15,0.0,0.0,88,0.00,,,0.00,VWS V14.00,2013-02-06 06:06:00,
2013-02-06 00:11:00,30.3,26.9,30.05,NNE,15,0.0,0.0,87,0.00,,,0.00,VWS V14.00,2013-02-06 06:11:00,
2013-02-06 00:16:00,30.5,26.8,30.05,NNE,15,0.0,0.0,86,0.00,,,0.00,VWS V14.00,2013-02-06 06:16:00,
2013-02-06 00:21:00,30.7,27.3,30.04,NNE,15,0.0,2.0,87,0.00,,,0.00,VWS V14.00,2013-02-06 06:21:00,
2013-02-06 00:26:00,30.9,27.2,30.05,NNE,15,0.0,3.0,86,0.00,,,0.00,VWS V14.00,2013-02-06 06:26:00,
2013-02-06 00:30:00,31.0,27.3,30.05,NNE,15,0.0,3.0,86,0.00,,,0.00,VWS V14.00,2013-02-06 06:30:00,
2013-02-06 00:31:00,31.1,27.4,30.05,NNE,15,0.0,0.0,86,0.00,,,0.00,VWS V14.00,2013-02-06 06:31:00,
2013-02-06 00:36:00,31.2,27.2,30.06,NNE,15,0.0,3.0,85,0.00,,,0.00,VWS V14.00,2013-02-06 06:36:00,
2013-02-06 00:41:00,31.3,27.3,30.05,NNE,15,0.0,3.0,85,0.00,,,0.00,VWS V14.00,2013-02-06 06:41:00,
2013-02-06 00:46:00,31.3,27.3,30.05,NNE,15,0.0,3.0,85,0.00,,,0.00,VWS V14.00,2013-02-06 06:46:00,
2013-02-06 00:51:00,31.2,27.2,30.05,NNE,15,0.0,3.0,85,0.00,,,0.00,VWS V14.00,2013-02-06 06:51:00,
2013-02-06 00:56:00,31.2,26.9,30.05,NNE,15,0.0,3.0,84,0.00,,,0.00,VWS V14.00,2013-02-06 06:56:00,
2013-02-06 01:00:00,31.2,27.2,30.05,NNE,15,0.0,3.0,85,0.00,,,0.00,VWS V14.00,2013-02-06 07:00:00,
2013-02-06 01:01:00,31.2,27.2,30.05,NNE,15,0.0,0.0,85,0.00,,,0.00,VWS V14.00,2013-02-06 07:01:00,
2013-02-06 01:06:00,31.3,27.3,30.05,NNE,15,0.0,0.0,85,0.00,,,0.00,VWS V14.00,2013-02-06 07:06:00,
2013-02-06 01:11:00,31.4,27.4,30.05,NNE,15,0.0,0.0,85,0.00,,,0.00,VWS V14.00,2013-02-06 07:11:00,
2013-02-06 01:16:00,31.4,27.4,30.05,NNE,15,0.0,0.0,85,0.00,,,0.00,VWS V14.00,2013-02-06 07:16:00,
2013-02-06 01:21:00,31.4,27.1,30.04,NNE,15,0.0,0.0,84,0.00,,,0.00,VWS V14.00,2013-02-06 07:21:00,
2013-02-06 01:26:00,31.2,26.9,30.04,NNE,15,0.0,0.0,84,0.00,,,0.00,VWS V14.00,2013-02-06 07:26:00,
2013-02-06 01:30:00,31.2,26.9,30.04,NNE,15,0.0,0.0,84,0.00,,,0.00,VWS V14.00,2013-02-06 07:30:00,
2013-02-06 01:31:00,31.0,26.7,30.04,NNE,15,0.0,0.0,84,0.00,,,0.00,VWS V14.00,2013-02-06 07:31:00,
2013-02-06 01:36:00,30.9,26.6,30.03,NNE,15,0.0,0.0,84,0.00,,,0.00,VWS V14.00,2013-02-06 07:36:00,
2013-02-06 01:41:00,30.8,26.8,30.03,NNE,15,0.0,0.0,85,0.00,,,0.00,VWS V14.00,2013-02-06 07:41:00,
2013-02-06 01:46:00,30.8,26.8,30.04,NNE,15,0.0,0.0,85,0.00,,,0.00,VWS V14.00,2013-02-06 07:46:00,
2013-02-06 01:51:00,30.7,27.0,30.03,NNE,15,0.0,0.0,86,0.00,,,0.00,VWS V14.00,2013-02-06 07:51:00,
2013-02-06 01:56:00,31.0,27.6,30.03,NNE,15,0.0,0.0,87,0.00,,,0.00,VWS V14.00,2013-02-06 07:56:00,
2013-02-06 02:00:00,31.0,27.3,30.03,NNE,15,0.0,0.0,86,0.00,,,0.00,VWS V14.00,2013-02-06 08:00:00,
2013-02-06 02:01:00,31.1,27.4,30.03,NNE,15,0.0,0.0,86,0.00,,,0.00,VWS V14.00,2013-02-06 08:01:00,
2013-02-06 02:06:00,31.3,27.6,30.03,NNE,15,0.0,0.0,86,0.00,,,0.00,VWS V14.00,2013-02-06 08:06:00,
2013-02-06 02:11:00,31.4,27.7,30.03,NNE,15,0.0,0.0,86,0.00,,,0.00,VWS V14.00,2013-02-06 08:11:00,
2013-02-06 02:16:00,31.4,27.7,30.03,NNE,15,0.0,0.0,86,0.00,,,0.00,VWS V14.00,2013-02-06 08:16:00,
2013-02-06 02:21:00,31.5,27.8,30.03,NNE,15,0.0,0.0,86,0.00,,,0.00,VWS V14.00,2013-02-06 08:21:00,
2013-02-06 02:26:00,31.6,27.9,30.03,NNE,15,0.0,0.0,86,0.00,,,0.00,VWS V14.00,2013-02-06 08:26:00,
2013-02-06 02:30:00,31.6,27.9,30.03,NNE,15,0.0,0.0,86,0.00,,,0.00,VWS V14.00,2013-02-06 08:30:00,
2013-02-06 02:31:00,31.7,28.0,30.02,NNE,15,0.0,0.0,86,0.00,,,0.00,VWS V14.00,2013-02-06 08:31:00,
2013-02-06 02:36:00,31.8,28.1,30.02,NNE,15,0.0,0.0,86,0.00,,,0.00,VWS V14.00,2013-02-06 08:36:00,
2013-02-06 02:41:00,31.8,27.8,30.02,NNE,16,0.0,3.0,85,0.00,,,0.00,VWS V14.00,2013-02-06 08:41:00,
2013-02-06 02:46:00,31.9,27.9,30.02,NNE,16,0.0,3.0,85,0.00,,,0.00,VWS V14.00,2013-02-06 08:46:00,
2013-02-06 02:51:00,32.0,28.0,30.02,NNE,16,0.0,3.0,85,0.00,,,0.00,VWS V14.00,2013-02-06 08:51:00,
2013-02-06 02:56:00,32.2,28.2,30.02,NNE,16,0.0,3.0,85,0.00,,,0.00,VWS V14.00,2013-02-06 08:56:00,
2013-02-06 03:00:00,32.3,28.3,30.02,NNE,16,0.0,3.0,85,0.00,,,0.00,VWS V14.00,2013-02-06 09:00:00,
2013-02-06 03:01:00,32.4,28.4,30.02,NNE,16,2.0,4.0,85,0.00,,,0.00,VWS V14.00,2013-02-06 09:01:00,
2013-02-06 03:07:00,32.6,28.6,30.02,NNE,16,2.0,4.0,85,0.00,,,0.00,VWS V14.00,2013-02-06 09:07:00,
2013-02-06 03:12:00,32.8,28.5,30.01,NNE,16,2.0,4.0,84,0.00,,,0.00,VWS V14.00,2013-02-06 09:12:00,
2013-02-06 03:17:00,33.0,28.7,30.01,NNE,16,3.0,5.0,84,0.00,,,0.00,VWS V14.00,2013-02-06 09:17:00,
2013-02-06 03:22:00,33.0,28.7,30.01,NNE,16,2.0,5.0,84,0.00,,,0.00,VWS V14.00,2013-02-06 09:22:00,
2013-02-06 03:27:00,33.1,28.8,30.00,NNE,16,2.0,5.0,84,0.00,,,0.00,VWS V14.00,2013-02-06 09:27:00,
2013-02-06 03:30:00,33.1,28.8,30.00,NNE,16,2.0,5.0,84,0.00,,,0.00,VWS V14.00,2013-02-06 09:30:00,
2013-02-06 03:32:00,33.1,28.8,30.00,NNE,16,2.0,5.0,84,0.00,,,0.00,VWS V14.00,2013-02-06 09:32:00,
2013-02-06 03:37:00,33.1,28.8,29.99,NNE,16,4.0,5.0,84,0.00,,,0.00,VWS V14.00,2013-02-06 09:37:00,
2013-02-06 03:42:00,33.1,28.5,29.99,NNE,17,2.0,6.0,83,0.00,,,0.00,VWS V14.00,2013-02-06 09:42:00,
2013-02-06 03:47:00,33.1,28.5,29.99,NNE,17,2.0,6.0,83,0.00,,,0.00,VWS V14.00,2013-02-06 09:47:00,
2013-02-06 03:52:00,33.0,28.4,30.00,NNE,17,2.0,6.0,83,0.00,,,0.00,VWS V14.00,2013-02-06 09:52:00,
2013-02-06 03:57:00,32.9,28.3,30.00,NNE,13,3.0,6.0,83,0.00,,,0.00,VWS V14.00,2013-02-06 09:57:00,
2013-02-06 04:00:00,32.9,28.3,30.00,NNE,13,3.0,6.0,83,0.00,,,0.00,VWS V14.00,2013-02-06 10:00:00,
2013-02-06 04:02:00,32.9,28.3,30.00,NNE,13,4.0,5.0,83,0.00,,,0.00,VWS V14.00,2013-02-06 10:02:00,
2013-02-06 04:07:00,32.9,28.3,29.99,North,11,3.0,5.0,83,0.00,,,0.00,VWS V14.00,2013-02-06 10:07:00,
2013-02-06 04:12:00,32.9,28.3,30.00,SW,214,4.0,7.0,83,0.00,,,0.00,VWS V14.00,2013-02-06 10:12:00,
2013-02-06 04:17:00,32.9,28.3,29.99,South,191,6.0,10.0,83,0.00,,,0.00,VWS V14.00,2013-02-06 10:17:00,
2013-02-06 04:22:00,32.9,28.3,29.99,South,191,2.0,10.0,83,0.00,,,0.00,VWS V14.00,2013-02-06 10:22:00,
2013-02-06 04:27:00,32.9,28.3,29.99,SSW,194,4.0,10.0,83,0.00,,,0.00,VWS V14.00,2013-02-06 10:27:00,
2013-02-06 04:30:00,32.9,28.3,30.00,SSW,193,3.0,10.0,83,0.00,,,0.00,VWS V14.00,2013-02-06 10:30:00,
2013-02-06 04:32:00,32.9,28.3,30.00,SSW,193,3.0,7.0,83,0.00,,,0.00,VWS V14.00,2013-02-06 10:32:00,
2013-02-06 04:37:00,32.8,28.2,29.99,SSW,194,3.0,7.0,83,0.00,,,0.00,VWS V14.00,2013-02-06 10:37:00,
2013-02-06 04:42:00,32.7,28.1,29.99,South,191,4.0,8.0,83,0.00,,,0.00,VWS V14.00,2013-02-06 10:42:00,
2013-02-06 04:47:00,32.5,27.9,29.99,SSW,192,3.0,8.0,83,0.00,,,0.00,VWS V14.00,2013-02-06 10:47:00,
2013-02-06 04:52:00,32.4,27.8,29.99,SSW,192,5.0,8.0,83,0.00,,,0.00,VWS V14.00,2013-02-06 10:52:00,
2013-02-06 04:57:00,32.3,28.0,29.99,SSW,192,3.0,8.0,84,0.00,,,0.00,VWS V14.00,2013-02-06 10:57:00,
2013-02-06 05:00:00,32.3,28.0,29.99,SSW,192,2.0,8.0,84,0.00,,,0.00,VWS V14.00,2013-02-06 11:00:00,
2013-02-06 05:03:00,32.2,27.9,29.99,SSW,192,4.0,5.0,84,0.00,,,0.00,VWS V14.00,2013-02-06 11:03:00,
2013-02-06 05:08:00,32.1,27.8,29.99,SSW,192,4.0,8.0,84,0.00,,,0.00,VWS V14.00,2013-02-06 11:08:00,
2013-02-06 05:13:00,31.9,27.6,29.98,SSW,192,3.0,8.0,84,0.00,,,0.00,VWS V14.00,2013-02-06 11:13:00,
2013-02-06 05:18:00,31.9,27.9,29.98,SSW,192,4.0,8.0,85,0.00,,,0.00,VWS V14.00,2013-02-06 11:18:00,
2013-02-06 05:23:00,31.9,27.9,29.98,South,190,4.0,9.0,85,0.00,,,0.00,VWS V14.00,2013-02-06 11:23:00,
2013-02-06 05:28:00,31.9,27.9,29.98,South,190,5.0,9.0,85,0.00,,,0.00,VWS V14.00,2013-02-06 11:28:00,
2013-02-06 05:30:00,31.9,27.9,29.98,South,190,5.0,9.0,85,0.00,,,0.00,VWS V14.00,2013-02-06 11:30:00,
2013-02-06 05:33:00,31.9,27.9,29.98,South,190,4.0,8.0,85,0.00,,,0.00,VWS V14.00,2013-02-06 11:33:00,
2013-02-06 05:38:00,31.9,27.9,29.97,South,190,6.0,9.0,85,0.00,,,0.00,VWS V14.00,2013-02-06 11:38:00,
2013-02-06 05:43:00,31.9,27.9,29.97,South,190,4.0,9.0,85,0.00,,,0.00,VWS V14.00,2013-02-06 11:43:00,
2013-02-06 05:48:00,31.7,27.7,29.98,South,190,4.0,9.0,85,0.00,,,0.00,VWS V14.00,2013-02-06 11:48:00,
2013-02-06 05:53:00,31.7,28.0,29.98,SSW,194,4.0,10.0,86,0.00,,,0.00,VWS V14.00,2013-02-06 11:53:00,
2013-02-06 05:58:00,31.7,28.0,29.98,SSW,194,7.0,10.0,86,0.00,,,0.00,VWS V14.00,2013-02-06 11:58:00,
2013-02-06 06:00:00,31.7,28.0,29.98,SSW,194,7.0,10.0,86,0.00,,,0.00,VWS V14.00,2013-02-06 12:00:00,
2013-02-06 06:03:00,31.8,28.1,29.98,SSW,196,8.0,10.0,86,0.00,,,0.00,VWS V14.00,2013-02-06 12:03:00,
2013-02-06 06:08:00,31.7,28.0,29.98,SSW,196,6.0,10.0,86,0.00,,,0.00,VWS V14.00,2013-02-06 12:08:00,
2013-02-06 06:13:00,31.6,27.9,29.98,SSW,196,7.0,10.0,86,0.00,,,0.00,VWS V14.00,2013-02-06 12:13:00,
2013-02-06 06:18:00,31.5,27.8,29.98,SSW,194,7.0,10.0,86,0.00,,,0.00,VWS V14.00,2013-02-06 12:18:00,
2013-02-06 06:23:00,31.4,27.7,29.98,SSW,193,6.0,10.0,86,0.00,,,0.00,VWS V14.00,2013-02-06 12:23:00,
2013-02-06 06:28:00,31.4,27.7,29.98,SSW,193,4.0,4.0,86,0.00,,,0.00,VWS V14.00,2013-02-06 12:28:00,
2013-02-06 06:30:00,31.4,27.7,29.98,SSW,193,3.0,10.0,86,0.00,,,0.00,VWS V14.00,2013-02-06 12:30:00,
2013-02-06 06:33:00,31.4,28.0,29.98,SSW,194,5.0,9.0,87,0.00,,,0.00,VWS V14.00,2013-02-06 12:33:00,
2013-02-06 06:38:00,31.5,27.8,29.98,SSW,196,5.0,11.0,86,0.00,,,0.00,VWS V14.00,2013-02-06 12:38:00,
2013-02-06 06:43:00,31.5,27.8,29.97,SSW,196,5.0,11.0,86,0.00,,,0.00,VWS V14.00,2013-02-06 12:43:00,
2013-02-06 06:48:00,31.4,27.7,29.97,SSW,196,5.0,11.0,86,0.00,,,0.00,VWS V14.00,2013-02-06 12:48:00,
2013-02-06 06:53:00,31.3,27.6,29.97,SSW,196,6.0,11.0,86,0.00,,,0.00,VWS V14.00,2013-02-06 12:53:00,
2013-02-06 06:58:00,31.3,27.6,29.96,SSW,194,5.0,6.0,86,0.00,,,0.00,VWS V14.00,2013-02-06 12:58:00,
2013-02-06 07:00:00,31.2,27.5,29.96,SSW,194,6.0,11.0,86,0.00,,,0.00,VWS V14.00,2013-02-06 13:00:00,
2013-02-06 07:03:00,31.4,27.7,29.96,SSW,192,6.0,10.0,86,0.00,,,0.00,VWS V14.00,2013-02-06 13:03:00,
2013-02-06 07:08:00,31.4,27.7,29.96,South,191,6.0,10.0,86,0.00,,,0.00,VWS V14.00,2013-02-06 13:08:00,
2013-02-06 07:13:00,31.5,27.8,29.96,South,186,3.0,10.0,86,0.00,,,0.00,VWS V14.00,2013-02-06 13:13:00,
2013-02-06 07:19:00,31.6,27.9,29.96,South,188,7.0,10.0,86,0.00,,,0.00,VWS V14.00,2013-02-06 13:19:00,
2013-02-06 07:24:00,31.7,28.0,29.96,South,190,7.0,10.0,86,0.00,,,0.00,VWS V14.00,2013-02-06 13:24:00,
2013-02-06 07:29:00,31.8,28.1,29.96,SSW,192,9.0,9.0,86,0.00,,,0.00,VWS V14.00,2013-02-06 13:29:00,
2013-02-06 07:30:00,31.8,28.1,29.96,SSW,192,6.0,11.0,86,0.00,,,0.00,VWS V14.00,2013-02-06 13:30:00,
2013-02-06 07:34:00,32.1,28.4,29.96,SSW,194,9.0,11.0,86,0.00,,,0.00,VWS V14.00,2013-02-06 13:34:00,
2013-02-06 07:39:00,32.2,28.5,29.96,SSW,192,7.0,11.0,86,0.00,,,0.00,VWS V14.00,2013-02-06 13:39:00,
2013-02-06 07:44:00,32.3,28.3,29.96,SSW,192,6.0,11.0,85,0.00,,,0.00,VWS V14.00,2013-02-06 13:44:00,
2013-02-06 07:49:00,32.4,28.4,29.96,SSW,194,7.0,11.0,85,0.00,,,0.00,VWS V14.00,2013-02-06 13:49:00,
2013-02-06 07:54:00,32.6,28.6,29.96,SSW,194,5.0,11.0,85,0.00,,,0.00,VWS V14.00,2013-02-06 13:54:00,
2013-02-06 07:59:00,32.8,28.8,29.96,SSW,192,7.0,10.0,85,0.00,,,0.00,VWS V14.00,2013-02-06 13:59:00,
2013-02-06 08:00:00,32.8,28.8,29.96,SSW,192,7.0,12.0,85,0.00,,,0.00,VWS V14.00,2013-02-06 14:00:00,
2013-02-06 08:04:00,33.2,29.2,29.96,SSW,194,5.0,11.0,85,0.00,,,0.00,VWS V14.00,2013-02-06 14:04:00,
2013-02-06 08:09:00,33.5,29.2,29.95,SSW,192,6.0,13.0,84,0.00,,,0.00,VWS V14.00,2013-02-06 14:09:00,
2013-02-06 08:14:00,33.9,29.6,29.95,SSW,192,7.0,13.0,84,0.00,,,0.00,VWS V14.00,2013-02-06 14:14:00,
2013-02-06 08:19:00,34.3,29.7,29.96,SSW,195,8.0,13.0,83,0.00,,,0.00,VWS V14.00,2013-02-06 14:19:00,
2013-02-06 08:24:00,34.6,30.0,29.96,SSW,194,6.0,13.0,83,0.00,,,0.00,VWS V14.00,2013-02-06 14:24:00,
2013-02-06 08:29:00,35.0,30.1,29.96,SSW,196,5.0,9.0,82,0.00,,,0.00,VWS V14.00,2013-02-06 14:29:00,
2013-02-06 08:30:00,35.0,30.1,29.96,SSW,196,7.0,13.0,82,0.00,,,0.00,VWS V14.00,2013-02-06 14:30:00,
2013-02-06 08:34:00,35.4,30.2,29.96,SSW,201,9.0,14.0,81,0.00,,,0.00,VWS V14.00,2013-02-06 14:34:00,
2013-02-06 08:39:00,35.8,30.2,29.96,SSW,197,9.0,15.0,80,0.00,,,0.00,VWS V14.00,2013-02-06 14:39:00,
2013-02-06 08:44:00,36.0,30.1,29.96,SSW,209,7.0,15.0,79,0.00,,,0.00,VWS V14.00,2013-02-06 14:44:00,
2013-02-06 08:49:00,36.2,30.3,29.96,SSW,203,11.0,16.0,79,0.00,,,0.00,VWS V14.00,2013-02-06 14:49:00,
2013-02-06 08:54:00,36.6,30.7,29.96,SSW,201,9.0,16.0,79,0.00,,,0.00,VWS V14.00,2013-02-06 14:54:00,
2013-02-06 08:59:00,37.2,31.0,29.96,SSW,212,8.0,19.0,78,0.00,,,0.00,VWS V14.00,2013-02-06 14:59:00,
2013-02-06 09:00:00,37.1,30.9,29.96,SSW,195,7.0,17.0,78,0.00,,,0.00,VWS V14.00,2013-02-06 15:00:00,
2013-02-06 09:04:00,37.8,30.9,29.96,SW,215,7.0,23.0,76,0.00,,,0.00,VWS V14.00,2013-02-06 15:04:00,
2013-02-06 09:09:00,38.2,31.0,29.95,SSW,203,6.0,23.0,75,0.00,,,0.00,VWS V14.00,2013-02-06 15:09:00,
2013-02-06 09:14:00,38.4,30.9,29.96,SSW,204,9.0,23.0,74,0.00,,,0.00,VWS V14.00,2013-02-06 15:14:00,
2013-02-06 09:19:00,38.6,31.0,29.95,SW,217,9.0,23.0,74,0.00,,,0.00,VWS V14.00,2013-02-06 15:19:00,
2013-02-06 09:24:00,38.7,30.8,29.95,SSW,206,9.0,23.0,73,0.00,,,0.00,VWS V14.00,2013-02-06 15:24:00,
2013-02-06 09:29:00,38.9,31.0,29.95,SSW,206,11.0,12.0,73,0.00,,,0.00,VWS V14.00,2013-02-06 15:29:00,
2013-02-06 09:30:00,38.9,31.0,29.95,SSW,198,6.0,23.0,73,0.00,,,0.00,VWS V14.00,2013-02-06 15:30:00,
2013-02-06 09:34:00,39.4,31.1,29.95,SW,222,14.0,17.0,72,0.00,,,0.00,VWS V14.00,2013-02-06 15:34:00,
2013-02-06 09:39:00,40.1,31.5,29.95,SSW,207,10.0,17.0,71,0.00,,,0.00,VWS V14.00,2013-02-06 15:39:00,
2013-02-06 09:44:00,40.7,31.7,29.95,South,190,18.0,20.0,70,0.00,,,0.00,VWS V14.00,2013-02-06 15:44:00,
2013-02-06 09:49:00,40.9,31.2,29.95,SSW,208,14.0,24.0,68,0.00,,,0.00,VWS V14.00,2013-02-06 15:49:00,
2013-02-06 09:54:00,40.8,31.1,29.95,SSW,202,7.0,24.0,68,0.00,,,0.00,VWS V14.00,2013-02-06 15:54:00,
2013-02-06 09:59:00,41.0,31.3,29.95,SSW,213,8.0,16.0,68,0.00,,,0.00,VWS V14.00,2013-02-06 15:59:00,
2013-02-06 10:00:00,43.7,32.7,29.93,South,191,14.0,23.0,65,0.00,,,0.00,VWS V14.00,2013-02-06 16:00:00,
2013-02-06 10:04:00,41.6,31.8,29.95,South,186,12.0,16.0,68,0.00,,,0.00,VWS V14.00,2013-02-06 16:04:00,
2013-02-06 10:09:00,42.3,31.8,29.94,South,186,11.0,20.0,66,0.00,,,0.00,VWS V14.00,2013-02-06 16:09:00,
2013-02-06 10:14:00,42.5,31.6,29.94,SSW,198,21.0,21.0,65,0.00,,,0.00,VWS V14.00,2013-02-06 16:14:00,
2013-02-06 10:20:00,42.6,31.7,29.94,SSW,213,18.0,24.0,65,0.00,,,0.00,VWS V14.00,2013-02-06 16:20:00,
2013-02-06 10:25:00,42.7,31.8,29.94,SW,223,13.0,24.0,65,0.00,,,0.00,VWS V14.00,2013-02-06 16:25:00,
2013-02-06 10:30:00,42.8,31.9,29.93,SSW,209,10.0,17.0,65,0.00,,,0.00,VWS V14.00,2013-02-06 16:30:00,
2013-02-06 10:35:00,42.8,31.9,29.94,SSW,202,12.0,21.0,65,0.00,,,0.00,VWS V14.00,2013-02-06 16:35:00,
2013-02-06 10:40:00,43.0,32.1,29.93,SSW,211,9.0,21.0,65,0.00,,,0.00,VWS V14.00,2013-02-06 16:40:00,
2013-02-06 10:45:00,43.2,32.2,29.93,South,188,11.0,23.0,65,0.00,,,0.00,VWS V14.00,2013-02-06 16:45:00,
2013-02-06 10:50:00,43.4,32.4,29.93,SSW,209,12.0,23.0,65,0.00,,,0.00,VWS V14.00,2013-02-06 16:50:00,
2013-02-06 10:55:00,43.5,32.5,29.93,SSW,207,13.0,23.0,65,0.00,,,0.00,VWS V14.00,2013-02-06 16:55:00,
2013-02-06 11:00:00,43.9,32.9,29.93,SW,219,13.0,21.0,65,0.00,,,0.00,VWS V14.00,2013-02-06 17:00:00,
2013-02-06 11:05:00,44.1,32.7,29.93,SSW,202,7.0,21.0,64,0.00,,,0.00,VWS V14.00,2013-02-06 17:05:00,
2013-02-06 11:10:00,44.0,32.6,29.93,SW,220,7.0,21.0,64,0.00,,,0.00,VWS V14.00,2013-02-06 17:10:00,
2013-02-06 11:15:00,43.8,32.4,29.93,SSW,193,18.0,23.0,64,0.00,,,0.00,VWS V14.00,2013-02-06 17:15:00,
2013-02-06 11:20:00,43.6,32.6,29.93,SW,215,11.0,23.0,65,0.00,,,0.00,VWS V14.00,2013-02-06 17:20:00,
2013-02-06 11:25:00,43.5,32.5,29.93,SW,230,15.0,24.0,65,0.00,,,0.00,VWS V14.00,2013-02-06 17:25:00,
2013-02-06 11:30:00,43.5,32.5,29.93,SW,226,12.0,17.0,65,0.00,,,0.00,VWS V14.00,2013-02-06 17:30:00,
2013-02-06 11:35:00,43.5,32.5,29.93,SW,221,6.0,22.0,65,0.00,,,0.00,VWS V14.00,2013-02-06 17:35:00,
2013-02-06 11:40:00,43.9,33.3,29.93,SW,215,10.0,22.0,66,0.00,,,0.00,VWS V14.00,2013-02-06 17:40:00,
2013-02-06 11:45:00,44.3,33.7,29.93,SSW,198,14.0,22.0,66,0.00,,,0.00,VWS V14.00,2013-02-06 17:45:00,
2013-02-06 11:50:00,44.7,34.0,29.93,SSW,205,8.0,22.0,66,0.00,,,0.00,VWS V14.00,2013-02-06 17:50:00,
2013-02-06 11:56:00,45.1,34.0,29.92,SSW,196,10.0,22.0,65,0.00,,,0.00,VWS V14.00,2013-02-06 17:56:00,
2013-02-06 12:00:00,45.3,34.2,29.92,SW,223,6.0,22.0,65,0.00,,,0.00,VWS V14.00,2013-02-06 18:00:00,
2013-02-06 12:01:00,45.5,34.4,29.92,SSW,199,8.0,14.0,65,0.00,,,0.00,VWS V14.00,2013-02-06 18:01:00,
2013-02-06 12:06:00,46.1,34.6,29.92,SSW,199,15.0,18.0,64,0.00,,,0.00,VWS V14.00,2013-02-06 18:06:00,
2013-02-06 12:11:00,47.0,35.1,29.91,SSW,211,13.0,23.0,63,0.00,,,0.00,VWS V14.00,2013-02-06 18:11:00,
2013-02-06 12:16:00,47.4,34.6,29.91,SW,228,12.0,23.0,61,0.00,,,0.00,VWS V14.00,2013-02-06 18:16:00,
2013-02-06 12:21:00,47.6,34.8,29.91,SSW,192,12.0,23.0,61,0.00,,,0.00,VWS V14.00,2013-02-06 18:21:00,
2013-02-06 12:26:00,47.7,35.3,29.91,SSW,212,13.0,23.0,62,0.00,,,0.00,VWS V14.00,2013-02-06 18:26:00,
2013-02-06 12:30:00,47.7,34.9,29.91,SSW,205,7.0,23.0,61,0.00,,,0.00,VWS V14.00,2013-02-06 18:30:00,
2013-02-06 12:31:00,47.7,34.9,29.90,SSW,195,14.0,19.0,61,0.00,,,0.00,VWS V14.00,2013-02-06 18:31:00,
2013-02-06 12:36:00,47.6,34.8,29.90,SW,218,7.0,19.0,61,0.00,,,0.00,VWS V14.00,2013-02-06 18:36:00,
2013-02-06 12:41:00,47.6,34.8,29.90,SW,234,17.0,22.0,61,0.00,,,0.00,VWS V14.00,2013-02-06 18:41:00,
2013-02-06 12:46:00,47.8,35.0,29.89,SSW,193,14.0,22.0,61,0.00,,,0.00,VWS V14.00,2013-02-06 18:46:00,
2013-02-06 12:51:00,48.0,34.8,29.89,SSW,192,10.0,22.0,60,0.00,,,0.00,VWS V14.00,2013-02-06 18:51:00,
2013-02-06 12:56:00,48.0,35.2,29.89,SSW,198,8.0,22.0,61,0.00,,,0.00,VWS V14.00,2013-02-06 18:56:00,
2013-02-06 13:00:00,48.0,35.6,29.89,SW,215,16.0,22.0,62,0.00,,,0.00,VWS V14.00,2013-02-06 19:00:00,
2013-02-06 13:01:00,48.2,35.4,29.89,South,187,11.0,17.0,61,0.00,,,0.00,VWS V14.00,2013-02-06 19:01:00,
2013-02-06 13:06:00,48.5,35.7,29.88,SSW,211,8.0,17.0,61,0.00,,,0.00,VWS V14.00,2013-02-06 19:06:00,
2013-02-06 13:11:00,48.7,35.9,29.88,SSW,203,8.0,17.0,61,0.00,,,0.00,VWS V14.00,2013-02-06 19:11:00,
2013-02-06 13:16:00,48.7,35.9,29.88,SSW,197,12.0,17.0,61,0.00,,,0.00,VWS V14.00,2013-02-06 19:16:00,
2013-02-06 13:21:00,48.6,35.8,29.88,SW,219,10.0,17.0,61,0.00,,,0.00,VWS V14.00,2013-02-06 19:21:00,
2013-02-06 13:26:00,48.5,35.7,29.88,SSW,211,7.0,17.0,61,0.00,,,0.00,VWS V14.00,2013-02-06 19:26:00,
2013-02-06 13:30:00,48.5,35.7,29.87,SSW,194,6.0,17.0,61,0.00,,,0.00,VWS V14.00,2013-02-06 19:30:00,
2013-02-06 13:31:00,48.6,35.8,29.87,SW,215,18.0,18.0,61,0.00,,,0.00,VWS V14.00,2013-02-06 19:31:00,
2013-02-06 13:36:00,48.6,35.8,29.87,SSW,212,6.0,18.0,61,0.00,,,0.00,VWS V14.00,2013-02-06 19:36:00,
2013-02-06 13:41:00,48.7,35.9,29.87,SW,228,5.0,18.0,61,0.00,,,0.00,VWS V14.00,2013-02-06 19:41:00,
2013-02-06 13:46:00,48.8,35.5,29.86,SW,216,4.0,18.0,60,0.00,,,0.00,VWS V14.00,2013-02-06 19:46:00,
2013-02-06 13:51:00,48.9,36.5,29.86,SW,226,6.0,18.0,62,0.00,,,0.00,VWS V14.00,2013-02-06 19:51:00,
2013-02-06 13:56:00,49.5,36.6,29.86,South,176,6.0,18.0,61,0.00,,,0.00,VWS V14.00,2013-02-06 19:56:00,
2013-02-06 14:00:00,49.7,36.4,29.86,SSW,205,7.0,18.0,60,0.00,,,0.00,VWS V14.00,2013-02-06 20:00:00,
2013-02-06 14:01:00,49.8,36.1,29.85,SSW,196,5.0,11.0,59,0.00,,,0.00,VWS V14.00,2013-02-06 20:01:00,
2013-02-06 14:06:00,49.9,36.6,29.85,SSW,200,11.0,12.0,60,0.00,,,0.00,VWS V14.00,2013-02-06 20:06:00,
2013-02-06 14:11:00,50.0,37.5,29.85,SSW,204,7.0,14.0,62,0.00,,,0.00,VWS V14.00,2013-02-06 20:11:00,
2013-02-06 14:16:00,49.9,36.6,29.85,SW,218,8.0,14.0,60,0.00,,,0.00,VWS V14.00,2013-02-06 20:16:00,
2013-02-06 14:21:00,49.7,36.4,29.85,SSW,207,8.0,14.0,60,0.00,,,0.00,VWS V14.00,2013-02-06 20:21:00,
2013-02-06 14:26:00,49.6,36.7,29.84,SSW,194,7.0,14.0,61,0.00,,,0.00,VWS V14.00,2013-02-06 20:26:00,
2013-02-06 14:30:00,49.6,36.7,29.84,SSW,209,9.0,14.0,61,0.00,,,0.00,VWS V14.00,2013-02-06 20:30:00,
2013-02-06 14:31:00,49.7,36.8,29.84,SSW,204,10.0,12.0,61,0.00,,,0.00,VWS V14.00,2013-02-06 20:31:00,
2013-02-06 14:36:00,49.8,36.9,29.83,South,186,7.0,12.0,61,0.00,,,0.00,VWS V14.00,2013-02-06 20:36:00,
2013-02-06 14:41:00,49.9,37.0,29.83,South,181,6.0,12.0,61,0.00,,,0.00,VWS V14.00,2013-02-06 20:41:00,
2013-02-06 14:47:00,49.9,37.4,29.83,South,182,4.0,13.0,62,0.00,,,0.00,VWS V14.00,2013-02-06 20:47:00,
2013-02-06 14:52:00,49.9,37.0,29.83,SSW,196,5.0,13.0,61,0.00,,,0.00,VWS V14.00,2013-02-06 20:52:00,
2013-02-06 14:57:00,49.9,37.4,29.83,SSW,198,8.0,13.0,62,0.00,,,0.00,VWS V14.00,2013-02-06 20:57:00,
2013-02-06 15:00:00,49.9,37.4,29.83,South,178,8.0,13.0,62,0.00,,,0.00,VWS V14.00,2013-02-06 21:00:00,
2013-02-06 15:02:00,50.0,37.5,29.83,South,186,5.0,11.0,62,0.00,,,0.00,VWS V14.00,2013-02-06 21:02:00,
2013-02-06 15:07:00,50.1,37.6,29.83,South,186,3.0,11.0,62,0.00,,,0.00,VWS V14.00,2013-02-06 21:07:00,
2013-02-06 15:12:00,50.4,37.5,29.83,South,186,8.0,11.0,61,0.00,,,0.00,VWS V14.00,2013-02-06 21:12:00,
2013-02-06 15:17:00,50.5,37.6,29.83,South,186,9.0,11.0,61,0.00,,,0.00,VWS V14.00,2013-02-06 21:17:00,
2013-02-06 15:22:00,50.7,37.8,29.83,South,187,6.0,11.0,61,0.00,,,0.00,VWS V14.00,2013-02-06 21:22:00,
2013-02-06 15:27:00,50.8,37.8,29.82,SSE,159,5.0,11.0,61,0.00,,,0.00,VWS V14.00,2013-02-06 21:27:00,
2013-02-06 15:30:00,50.8,37.8,29.82,South,175,8.0,11.0,61,0.00,,,0.00,VWS V14.00,2013-02-06 21:30:00,
2013-02-06 15:32:00,50.8,38.3,29.82,South,180,11.0,11.0,62,0.00,,,0.00,VWS V14.00,2013-02-06 21:32:00,
2013-02-06 15:37:00,50.8,37.8,29.83,South,184,4.0,11.0,61,0.00,,,0.00,VWS V14.00,2013-02-06 21:37:00,
2013-02-06 15:42:00,50.8,37.8,29.83,South,184,0.0,11.0,61,0.00,,,0.00,VWS V14.00,2013-02-06 21:42:00,
2013-02-06 15:47:00,50.9,38.4,29.83,South,184,0.0,11.0,62,0.00,,,0.00,VWS V14.00,2013-02-06 21:47:00,
2013-02-06 15:52:00,50.9,38.4,29.83,South,184,3.0,11.0,62,0.00,,,0.00,VWS V14.00,2013-02-06 21:52:00,
2013-02-06 15:57:00,51.0,38.5,29.83,South,184,0.0,11.0,62,0.00,,,0.00,VWS V14.00,2013-02-06 21:57:00,
2013-02-06 16:00:00,51.0,38.5,29.83,South,184,2.0,11.0,62,0.00,,,0.00,VWS V14.00,2013-02-06 22:00:00,
2013-02-06 16:02:00,51.1,38.1,29.83,South,184,0.0,4.0,61,0.00,,,0.00,VWS V14.00,2013-02-06 22:02:00,
2013-02-06 16:07:00,51.2,38.6,29.82,South,184,0.0,4.0,62,0.00,,,0.00,VWS V14.00,2013-02-06 22:07:00,
2013-02-06 16:12:00,51.2,38.6,29.82,South,184,0.0,4.0,62,0.00,,,0.00,VWS V14.00,2013-02-06 22:12:00,
2013-02-06 16:17:00,51.2,38.6,29.82,South,184,0.0,4.0,62,0.00,,,0.00,VWS V14.00,2013-02-06 22:17:00,
2013-02-06 16:22:00,51.3,38.7,29.82,South,184,0.0,4.0,62,0.00,,,0.00,VWS V14.00,2013-02-06 22:22:00,
2013-02-06 16:27:00,51.3,38.7,29.82,South,184,0.0,4.0,62,0.00,,,0.00,VWS V14.00,2013-02-06 22:27:00,
2013-02-06 16:30:00,51.3,38.7,29.82,South,184,0.0,4.0,62,0.00,,,0.00,VWS V14.00,2013-02-06 22:30:00,
2013-02-06 16:32:00,51.4,38.4,29.82,South,184,0.0,0.0,61,0.00,,,0.00,VWS V14.00,2013-02-06 22:32:00,
2013-02-06 16:37:00,51.6,38.6,29.81,South,184,3.0,8.0,61,0.00,,,0.00,VWS V14.00,2013-02-06 22:37:00,
2013-02-06 16:42:00,51.8,38.8,29.81,South,184,4.0,8.0,61,0.00,,,0.00,VWS V14.00,2013-02-06 22:42:00,
2013-02-06 16:47:00,52.1,39.1,29.81,South,184,5.0,8.0,61,0.00,,,0.00,VWS V14.00,2013-02-06 22:47:00,
2013-02-06 16:52:00,52.3,39.3,29.81,South,184,0.0,8.0,61,0.00,,,0.00,VWS V14.00,2013-02-06 22:52:00,
2013-02-06 16:57:00,52.3,39.3,29.81,South,184,4.0,8.0,61,0.00,,,0.00,VWS V14.00,2013-02-06 22:57:00,
2013-02-06 17:00:00,52.4,39.4,29.81,South,184,3.0,8.0,61,0.00,,,0.00,VWS V14.00,2013-02-06 23:00:00,
2013-02-06 17:02:00,52.4,39.4,29.81,South,184,0.0,6.0,61,0.00,,,0.00,VWS V14.00,2013-02-06 23:02:00,
2013-02-06 17:07:00,52.3,39.3,29.81,South,184,3.0,9.0,61,0.00,,,0.00,VWS V14.00,2013-02-06 23:07:00,
2013-02-06 17:12:00,52.2,38.8,29.81,South,184,6.0,9.0,60,0.00,,,0.00,VWS V14.00,2013-02-06 23:12:00,
2013-02-06 17:17:00,52.1,38.7,29.81,South,184,3.0,9.0,60,0.00,,,0.00,VWS V14.00,2013-02-06 23:17:00,
2013-02-06 17:22:00,51.9,38.5,29.81,South,184,4.0,9.0,60,0.00,,,0.00,VWS V14.00,2013-02-06 23:22:00,
2013-02-06 17:28:00,51.8,38.4,29.81,South,184,6.0,9.0,60,0.00,,,0.00,VWS V14.00,2013-02-06 23:28:00,
2013-02-06 17:30:00,51.8,38.4,29.81,South,184,4.0,9.0,60,0.00,,,0.00,VWS V14.00,2013-02-06 23:30:00,
2013-02-06 17:33:00,51.7,38.3,29.81,South,184,4.0,7.0,60,0.00,,,0.00,VWS V14.00,2013-02-06 23:33:00,
2013-02-06 17:38:00,51.3,38.3,29.81,South,184,4.0,7.0,61,0.00,,,0.00,VWS V14.00,2013-02-06 23:38:00,
2013-02-06 17:43:00,50.9,38.4,29.81,South,184,5.0,7.0,62,0.00,,,0.00,VWS V14.00,2013-02-06 23:43:00,
2013-02-06 17:48:00,50.5,38.4,29.81,South,184,3.0,7.0,63,0.00,,,0.00,VWS V14.00,2013-02-06 23:48:00,
2013-02-06 17:53:00,50.2,38.1,29.81,South,184,5.0,7.0,63,0.00,,,0.00,VWS V14.00,2013-02-06 23:53:00,
2013-02-06 17:58:00,49.9,37.8,29.82,South,184,0.0,7.0,63,0.00,,,0.00,VWS V14.00,2013-02-06 23:58:00,
2013-02-06 18:00:00,49.9,37.8,29.82,South,184,0.0,7.0,63,0.00,,,0.00,VWS V14.00,2013-02-07 00:00:00,
2013-02-06 18:03:00,49.7,37.6,29.81,South,184,0.0,4.0,63,0.00,,,0.00,VWS V14.00,2013-02-07 00:03:00,
2013-02-06 18:08:00,49.6,37.9,29.82,South,184,0.0,4.0,64,0.00,,,0.00,VWS V14.00,2013-02-07 00:08:00,
2013-02-06 18:13:00,49.4,37.3,29.81,South,184,0.0,4.0,63,0.00,,,0.00,VWS V14.00,2013-02-07 00:13:00,
2013-02-06 18:18:00,49.3,37.7,29.82,South,184,0.0,4.0,64,0.00,,,0.00,VWS V14.00,2013-02-07 00:18:00,
2013-02-06 18:23:00,49.1,37.5,29.82,South,184,0.0,4.0,64,0.00,,,0.00,VWS V14.00,2013-02-07 00:23:00,
2013-02-06 18:28:00,48.9,37.3,29.82,South,184,0.0,4.0,64,0.00,,,0.00,VWS V14.00,2013-02-07 00:28:00,
2013-02-06 18:30:00,48.9,37.3,29.82,South,184,0.0,4.0,64,0.00,,,0.00,VWS V14.00,2013-02-07 00:30:00,
2013-02-06 18:33:00,48.7,37.5,29.82,South,184,0.0,0.0,65,0.00,,,0.00,VWS V14.00,2013-02-07 00:33:00,
2013-02-06 18:38:00,48.4,37.2,29.82,South,184,0.0,0.0,65,0.00,,,0.00,VWS V14.00,2013-02-07 00:38:00,
2013-02-06 18:43:00,48.2,38.2,29.82,South,184,0.0,0.0,68,0.00,,,0.00,VWS V14.00,2013-02-07 00:43:00,
2013-02-06 18:48:00,47.9,36.7,29.82,South,184,0.0,0.0,65,0.00,,,0.00,VWS V14.00,2013-02-07 00:48:00,
2013-02-06 18:53:00,47.6,36.8,29.83,South,184,0.0,0.0,66,0.00,,,0.00,VWS V14.00,2013-02-07 00:53:00,
2013-02-06 18:58:00,47.2,36.8,29.83,South,184,0.0,0.0,67,0.00,,,0.00,VWS V14.00,2013-02-07 00:58:00,
2013-02-06 19:00:00,43.3,36.3,29.84,South,184,0.0,0.0,76,0.00,,,0.00,VWS V14.00,2013-02-07 01:00:00,
2013-02-06 19:03:00,46.9,36.5,29.83,South,184,0.0,0.0,67,0.00,,,0.00,VWS V14.00,2013-02-07 01:03:00,
2013-02-06 19:08:00,46.5,36.5,29.82,South,184,0.0,0.0,68,0.00,,,0.00,VWS V14.00,2013-02-07 01:08:00,
2013-02-06 19:13:00,46.1,36.1,29.83,South,184,0.0,0.0,68,0.00,,,0.00,VWS V14.00,2013-02-07 01:13:00,
2013-02-06 19:18:00,45.6,36.4,29.83,South,184,0.0,0.0,70,0.00,,,0.00,VWS V14.00,2013-02-07 01:18:00,
2013-02-06 19:23:00,45.2,36.4,29.83,South,184,0.0,4.0,71,0.00,,,0.00,VWS V14.00,2013-02-07 01:23:00,
2013-02-06 19:28:00,44.8,36.0,29.84,South,184,0.0,0.0,71,0.00,,,0.00,VWS V14.00,2013-02-07 01:28:00,
2013-02-06 19:30:00,44.8,36.0,29.83,South,184,0.0,4.0,71,0.00,,,0.00,VWS V14.00,2013-02-07 01:30:00,
2013-02-06 19:33:00,44.4,36.0,29.84,South,184,0.0,0.0,72,0.00,,,0.00,VWS V14.00,2013-02-07 01:33:00,
2013-02-06 19:38:00,44.1,36.0,29.84,South,184,0.0,0.0,73,0.00,,,0.00,VWS V14.00,2013-02-07 01:38:00,
2013-02-06 19:43:00,43.8,36.1,29.84,South,184,0.0,0.0,74,0.00,,,0.00,VWS V14.00,2013-02-07 01:43:00,
2013-02-06 19:48:00,43.5,36.1,29.84,South,184,0.0,0.0,75,0.00,,,0.00,VWS V14.00,2013-02-07 01:48:00,
2013-02-06 19:53:00,43.4,36.3,29.84,South,184,0.0,0.0,76,0.00,,,0.00,VWS V14.00,2013-02-07 01:53:00,
2013-02-06 19:58:00,43.3,36.3,29.84,South,184,0.0,0.0,76,0.00,,,0.00,VWS V14.00,2013-02-07 01:58:00,
2013-02-06 20:00:00,43.3,36.6,29.84,South,184,0.0,0.0,77,0.00,,,0.00,VWS V14.00,2013-02-07 02:00:00,
2013-02-06 20:03:00,43.3,36.6,29.84,South,184,0.0,0.0,77,0.00,,,0.00,VWS V14.00,2013-02-07 02:03:00,
2013-02-06 20:08:00,43.2,36.5,29.84,South,184,0.0,0.0,77,0.00,,,0.00,VWS V14.00,2013-02-07 02:08:00,
2013-02-06 20:13:00,43.1,36.4,29.84,South,184,0.0,0.0,77,0.00,,,0.00,VWS V14.00,2013-02-07 02:13:00,
2013-02-06 20:18:00,43.1,36.4,29.84,South,184,0.0,0.0,77,0.00,,,0.00,VWS V14.00,2013-02-07 02:18:00,
2013-02-06 20:23:00,43.1,36.7,29.84,South,184,0.0,0.0,78,0.00,,,0.00,VWS V14.00,2013-02-07 02:23:00,
2013-02-06 20:28:00,43.2,36.5,29.84,South,184,0.0,0.0,77,0.00,,,0.00,VWS V14.00,2013-02-07 02:28:00,
2013-02-06 20:30:00,43.2,36.5,29.84,South,184,0.0,0.0,77,0.00,,,0.00,VWS V14.00,2013-02-07 02:30:00,
2013-02-06 20:33:00,43.3,36.6,29.84,South,184,0.0,0.0,77,0.00,,,0.00,VWS V14.00,2013-02-07 02:33:00,
2013-02-06 20:39:00,43.3,36.6,29.84,South,184,0.0,0.0,77,0.00,,,0.00,VWS V14.00,2013-02-07 02:39:00,
2013-02-06 20:44:00,43.3,36.6,29.84,South,184,0.0,0.0,77,0.00,,,0.00,VWS V14.00,2013-02-07 02:44:00,
2013-02-06 20:49:00,43.3,36.6,29.84,South,184,0.0,0.0,77,0.00,,,0.00,VWS V14.00,2013-02-07 02:49:00,
2013-02-06 20:54:00,43.3,36.6,29.84,South,184,0.0,0.0,77,0.00,,,0.00,VWS V14.00,2013-02-07 02:54:00,
2013-02-06 20:59:00,43.3,36.6,29.84,South,184,0.0,0.0,77,0.00,,,0.00,VWS V14.00,2013-02-07 02:59:00,
2013-02-06 21:00:00,43.3,36.6,29.84,South,184,0.0,0.0,77,0.00,,,0.00,VWS V14.00,2013-02-07 03:00:00,
2013-02-06 21:04:00,43.3,36.6,29.84,South,184,0.0,0.0,77,0.00,,,0.00,VWS V14.00,2013-02-07 03:04:00,
2013-02-06 21:09:00,43.3,36.9,29.84,South,184,0.0,0.0,78,0.00,,,0.00,VWS V14.00,2013-02-07 03:09:00,
2013-02-06 21:14:00,43.3,36.9,29.84,South,184,0.0,0.0,78,0.00,,,0.00,VWS V14.00,2013-02-07 03:14:00,
2013-02-06 21:19:00,43.3,36.9,29.84,South,184,0.0,0.0,78,0.00,,,0.00,VWS V14.00,2013-02-07 03:19:00,
2013-02-06 21:24:00,43.3,36.9,29.85,South,184,0.0,0.0,78,0.00,,,0.00,VWS V14.00,2013-02-07 03:24:00,
2013-02-06 21:29:00,43.3,36.9,29.85,South,184,3.0,4.0,78,0.00,,,0.00,VWS V14.00,2013-02-07 03:29:00,
2013-02-06 21:30:00,43.3,36.9,29.85,South,184,3.0,4.0,78,0.00,,,0.00,VWS V14.00,2013-02-07 03:30:00,
2013-02-06 21:34:00,43.4,37.0,29.85,South,184,0.0,4.0,78,0.00,,,0.00,VWS V14.00,2013-02-07 03:34:00,
2013-02-06 21:39:00,43.5,37.1,29.85,South,184,0.0,4.0,78,0.00,,,0.00,VWS V14.00,2013-02-07 03:39:00,
2013-02-06 21:44:00,43.5,36.8,29.85,South,184,1.0,4.0,77,0.00,,,0.00,VWS V14.00,2013-02-07 03:44:00,
2013-02-06 21:49:00,43.5,36.8,29.85,South,184,0.0,4.0,77,0.00,,,0.00,VWS V14.00,2013-02-07 03:49:00,
2013-02-06 21:54:00,43.5,36.8,29.85,South,184,0.0,4.0,77,0.00,,,0.00,VWS V14.00,2013-02-07 03:54:00,
2013-02-06 21:59:00,43.4,36.7,29.85,South,184,2.0,3.0,77,0.00,,,0.00,VWS V14.00,2013-02-07 03:59:00,
2013-02-06 22:00:00,43.4,36.7,29.85,South,184,3.0,4.0,77,0.00,,,0.00,VWS V14.00,2013-02-07 04:00:00,
2013-02-06 22:04:00,43.3,36.6,29.85,South,184,3.0,3.0,77,0.00,,,0.00,VWS V14.00,2013-02-07 04:04:00,
2013-02-06 22:09:00,43.2,36.5,29.85,South,184,0.0,4.0,77,0.00,,,0.00,VWS V14.00,2013-02-07 04:09:00,
2013-02-06 22:14:00,43.0,36.3,29.84,South,184,0.0,4.0,77,0.00,,,0.00,VWS V14.00,2013-02-07 04:14:00,
2013-02-06 22:19:00,42.8,36.1,29.84,South,184,0.0,4.0,77,0.00,,,0.00,VWS V14.00,2013-02-07 04:19:00,
2013-02-06 22:24:00,42.6,35.9,29.84,South,184,0.0,4.0,77,0.00,,,0.00,VWS V14.00,2013-02-07 04:24:00,
2013-02-06 22:29:00,42.3,35.6,29.84,South,184,0.0,0.0,77,0.00,,,0.00,VWS V14.00,2013-02-07 04:29:00,
2013-02-06 22:30:00,42.4,35.7,29.84,South,184,0.0,4.0,77,0.00,,,0.00,VWS V14.00,2013-02-07 04:30:00,
2013-02-06 22:34:00,42.1,35.8,29.84,South,184,0.0,0.0,78,0.00,,,0.00,VWS V14.00,2013-02-07 04:34:00,
2013-02-06 22:39:00,41.8,35.5,29.84,South,184,0.0,0.0,78,0.00,,,0.00,VWS V14.00,2013-02-07 04:39:00,
2013-02-06 22:44:00,41.6,35.3,29.84,South,184,0.0,0.0,78,0.00,,,0.00,VWS V14.00,2013-02-07 04:44:00,
2013-02-06 22:49:00,41.4,35.1,29.84,South,184,0.0,0.0,78,0.00,,,0.00,VWS V14.00,2013-02-07 04:49:00,
2013-02-06 22:54:00,41.1,35.1,29.84,South,184,0.0,0.0,79,0.00,,,0.00,VWS V14.00,2013-02-07 04:54:00,
2013-02-06 22:59:00,40.9,34.9,29.84,South,184,0.0,0.0,79,0.00,,,0.00,VWS V14.00,2013-02-07 04:59:00,
2013-02-06 23:00:00,40.8,34.8,29.84,South,184,0.0,0.0,79,0.00,,,0.00,VWS V14.00,2013-02-07 05:00:00,
2013-02-06 23:01:00,40.7,34.7,29.84,South,184,0.0,0.0,79,0.00,,,0.00,VWS V14.00,2013-02-07 05:01:00,
2013-02-06 23:05:00,40.5,34.5,29.84,South,184,0.0,0.0,79,0.00,,,0.00,VWS V14.00,2013-02-07 05:05:00,
2013-02-06 23:07:00,40.4,34.7,29.84,South,184,0.0,0.0,80,0.00,,,0.00,VWS V14.00,2013-02-07 05:07:00,
2013-02-06 23:12:00,40.2,34.8,29.85,South,184,4.0,5.0,81,0.00,,,0.00,VWS V14.00,2013-02-07 05:12:00,
2013-02-06 23:18:00,40.0,35.0,29.85,South,184,0.0,5.0,82,0.00,,,0.00,VWS V14.00,2013-02-07 05:18:00,
2013-02-06 23:23:00,39.9,35.2,29.85,South,184,4.0,5.0,83,0.00,,,0.00,VWS V14.00,2013-02-07 05:23:00,
2013-02-06 23:28:00,39.9,35.5,29.85,South,185,2.0,7.0,84,0.00,,,0.00,VWS V14.00,2013-02-07 05:28:00,
2013-02-06 23:30:00,39.9,35.5,29.85,South,185,1.0,7.0,84,0.00,,,0.00,VWS V14.00,2013-02-07 05:30:00,
2013-02-06 23:33:00,39.9,35.5,29.85,South,185,3.0,4.0,84,0.00,,,0.00,VWS V14.00,2013-02-07 05:33:00,
2013-02-06 23:38:00,40.1,35.7,29.85,South,185,4.0,6.0,84,0.00,,,0.00,VWS V14.00,2013-02-07 05:38:00,
2013-02-06 23:43:00,40.2,35.8,29.86,South,185,0.0,6.0,84,0.00,,,0.00,VWS V14.00,2013-02-07 05:43:00,
2013-02-06 23:48:00,40.2,35.8,29.86,South,185,0.0,6.0,84,0.00,,,0.00,VWS V14.00,2013-02-07 05:48:00,
2013-02-06 23:53:00,40.3,35.6,29.86,South,185,0.0,6.0,83,0.00,,,0.00,VWS V14.00,2013-02-07 05:53:00,
2013-02-06 23:58:00,40.3,35.6,29.86,South,185,0.0,6.0,83,0.00,,,0.00,VWS V14.00,2013-02-07 05:58:00,